createdAt,value
2022-12-20T08:33:37.335Z,10.20
2022-12-20T08:43:36.140Z,10.40
2022-12-20T09:43:59.292Z,11.70
2022-12-20T09:48:54.609Z,11.70
2022-12-20T09:51:21.687Z,11.90
2022-12-20T09:54:23.955Z,12.00
2022-12-20T09:57:09.693Z,12.10
2022-12-20T09:59:41.402Z,12.10
2022-12-20T10:05:51.779Z,12.10
2022-12-20T10:08:54.193Z,12.10
2022-12-20T10:11:48.086Z,12.00
2022-12-20T10:14:57.833Z,12.00
2022-12-20T10:18:19.960Z,12.10
2022-12-20T10:21:01.406Z,12.10
2022-12-20T10:23:39.518Z,12.10
2022-12-20T10:26:11.707Z,12.20
2022-12-20T10:28:39.755Z,12.20
2022-12-20T10:31:13.547Z,12.20
2022-12-20T10:33:41.589Z,12.20
2022-12-20T10:36:38.502Z,12.20
2022-12-20T10:39:10.284Z,12.20
2022-12-20T10:41:42.973Z,12.20
2022-12-20T10:44:23.295Z,12.30
2022-12-20T10:46:55.049Z,12.50
2022-12-20T10:49:33.166Z,12.50
2022-12-20T10:52:08.023Z,12.50
2022-12-20T10:54:40.313Z,12.50
2022-12-20T10:57:22.638Z,12.50
2022-12-20T10:59:55.986Z,12.50
2022-12-20T11:02:41.268Z,12.50
2022-12-20T11:05:12.880Z,12.40
2022-12-20T11:10:45.442Z,12.20
2022-12-20T11:13:26.807Z,12.10
2022-12-20T11:15:57.690Z,12.00
2022-12-20T11:18:56.851Z,12.00
2022-12-20T11:21:45.119Z,12.00
2022-12-20T11:24:37.148Z,12.00
2022-12-20T11:27:16.585Z,12.10
2022-12-20T11:30:00.518Z,12.10
2022-12-20T11:33:04.374Z,12.20
2022-12-20T11:36:15.822Z,12.20
2022-12-20T11:39:17.111Z,12.30
2022-12-20T11:42:07.069Z,12.30
2022-12-20T11:45:09.587Z,12.30
2022-12-20T11:48:02.313Z,12.40
2022-12-20T11:51:02.815Z,12.50
2022-12-20T11:53:42.605Z,12.50
2022-12-20T11:56:22.162Z,12.50
2022-12-20T11:58:56.133Z,12.50
2022-12-20T12:01:57.846Z,12.50
2022-12-20T12:04:34.185Z,12.50
2022-12-20T12:07:22.782Z,12.70
2022-12-20T12:10:17.018Z,13.00
2022-12-20T12:12:58.119Z,13.00
2022-12-20T12:16:10.702Z,12.90
2022-12-20T12:18:39.831Z,12.80
2022-12-20T12:21:48.136Z,12.80
2022-12-20T12:24:38.661Z,12.70
2022-12-20T12:27:11.289Z,12.50
2022-12-20T12:29:42.667Z,12.50
2022-12-20T12:32:51.326Z,12.50
2022-12-20T12:35:35.438Z,12.60
2022-12-20T12:38:28.263Z,12.60
2022-12-20T12:41:22.438Z,12.60
2022-12-20T12:44:02.671Z,12.60
2022-12-20T12:46:35.158Z,12.50
2022-12-20T12:49:13.429Z,12.50
2022-12-20T12:51:50.506Z,12.50
2022-12-20T12:54:29.207Z,12.40
2022-12-20T12:57:18.044Z,12.40
2022-12-20T12:59:50.308Z,12.30
2022-12-20T13:02:17.742Z,12.40
2022-12-20T13:05:26.205Z,12.40
2022-12-20T13:07:53.668Z,12.40
2022-12-20T13:10:22.053Z,12.40
2022-12-20T13:12:51.838Z,12.40
2022-12-20T13:15:21.677Z,12.40
2022-12-20T13:18:13.536Z,12.50
2022-12-20T13:20:40.707Z,12.50
2022-12-20T13:23:10.631Z,12.60
2022-12-20T13:25:41.496Z,12.80
2022-12-20T13:28:23.357Z,12.70
2022-12-20T13:31:02.624Z,12.70
2022-12-20T13:33:43.006Z,12.70
2022-12-20T13:36:09.908Z,12.70
2022-12-20T13:38:53.472Z,12.60
2022-12-20T13:41:40.019Z,12.50
2022-12-20T13:44:17.085Z,12.50
2022-12-20T13:47:03.881Z,12.50
2022-12-20T13:49:44.457Z,12.50
2022-12-20T13:52:11.288Z,12.50
2022-12-20T13:55:01.059Z,12.50
2022-12-20T13:57:43.766Z,12.60
2022-12-20T14:00:31.214Z,12.80
2022-12-20T14:02:58.474Z,12.80
2022-12-20T14:05:32.804Z,12.70
2022-12-20T14:08:01.886Z,12.60
2022-12-20T14:10:32.420Z,12.40
2022-12-20T14:13:00.129Z,12.30
2022-12-20T14:15:31.871Z,12.20
2022-12-20T14:18:21.413Z,12.10
2022-12-20T14:20:58.815Z,12.10
2022-12-20T14:39:26.196Z,11.30
2022-12-20T14:42:02.217Z,11.10
2022-12-20T14:44:31.427Z,11.00
2022-12-20T14:47:12.904Z,10.90
2022-12-20T14:49:40.949Z,10.90
2022-12-20T14:52:21.033Z,10.80
2022-12-20T14:55:09.012Z,10.80
2022-12-20T14:57:36.651Z,10.70
2022-12-20T15:00:18.570Z,10.70
2022-12-20T15:02:56.980Z,10.70
2022-12-20T15:05:36.775Z,10.70
2022-12-20T15:08:28.870Z,10.70
2022-12-20T15:11:22.517Z,10.70
2022-12-20T15:13:54.484Z,10.70
2022-12-20T15:16:28.100Z,10.80
2022-12-20T15:18:57.760Z,10.80
2022-12-20T15:21:35.455Z,10.80
2022-12-20T15:24:08.788Z,10.80
2022-12-20T15:26:36.583Z,10.70
2022-12-20T15:29:04.436Z,10.70
2022-12-20T15:31:35.419Z,10.70
2022-12-20T15:34:16.053Z,10.60
2022-12-20T15:36:42.939Z,10.60
2022-12-20T15:39:13.632Z,10.60
2022-12-20T15:41:46.360Z,10.50
2022-12-20T15:46:44.445Z,10.60
2022-12-20T15:49:21.327Z,10.50
2022-12-20T15:51:51.081Z,10.60
2022-12-20T15:54:35.824Z,10.50
2022-12-20T15:57:09.277Z,10.50
2022-12-20T16:02:27.887Z,10.40
2022-12-20T16:04:55.450Z,10.50
2022-12-20T16:07:23.466Z,10.50
2022-12-20T16:09:50.424Z,10.50
2022-12-20T16:12:25.768Z,10.50
2022-12-20T16:14:52.927Z,10.50
2022-12-20T16:17:19.959Z,10.50
2022-12-20T16:19:46.876Z,10.40
2022-12-20T16:22:22.664Z,10.40
2022-12-20T16:24:50.160Z,10.30
2022-12-20T16:27:17.455Z,10.30
2022-12-20T16:32:18.287Z,10.30
2022-12-20T16:34:46.093Z,10.30
2022-12-20T16:37:13.357Z,10.30
2022-12-20T16:39:41.473Z,10.30
2022-12-20T16:42:17.697Z,10.20
2022-12-20T16:44:46.110Z,10.20
2022-12-20T16:47:14.634Z,10.20
2022-12-20T16:49:51.269Z,10.30
2022-12-20T16:52:20.057Z,10.30
2022-12-20T16:54:46.978Z,10.30
2022-12-20T16:57:13.875Z,10.30
2022-12-20T16:59:40.940Z,10.30
2022-12-20T17:02:29.631Z,10.30
2022-12-20T17:04:57.135Z,10.30
2022-12-20T17:07:24.072Z,10.30
2022-12-20T17:09:51.115Z,10.40
2022-12-20T17:12:21.385Z,10.40
2022-12-20T17:14:49.304Z,10.50
2022-12-20T17:17:17.389Z,10.50
2022-12-20T17:19:44.704Z,10.50
2022-12-20T17:22:24.552Z,10.50
2022-12-20T17:24:51.515Z,10.50
2022-12-20T17:27:19.053Z,10.50
2022-12-20T17:29:46.051Z,10.50
2022-12-20T17:32:24.599Z,10.60
2022-12-20T17:34:53.090Z,10.60
2022-12-20T17:37:21.086Z,10.60
2022-12-20T17:39:48.496Z,10.60
2022-12-20T17:42:16.649Z,10.70
2022-12-20T17:44:43.644Z,10.60
2022-12-20T17:47:11.827Z,10.60
2022-12-20T17:49:39.208Z,10.60
2022-12-20T17:52:06.238Z,10.70
2022-12-20T17:54:39.564Z,10.70
2022-12-20T17:57:15.532Z,10.70
2022-12-20T17:59:42.981Z,10.70
2022-12-20T18:02:23.824Z,10.70
2022-12-20T18:04:51.492Z,10.70
2022-12-20T18:07:18.643Z,10.70
2022-12-20T18:09:48.051Z,10.60
2022-12-20T18:12:15.062Z,10.60
2022-12-20T18:14:41.892Z,10.60
2022-12-20T18:17:08.819Z,10.60
2022-12-20T18:19:35.885Z,10.60
2022-12-20T18:22:04.732Z,10.60
2022-12-20T18:24:32.061Z,10.60
2022-12-20T18:26:58.873Z,10.50
2022-12-20T18:29:25.911Z,10.60
2022-12-20T18:31:52.854Z,10.50
2022-12-20T18:34:19.700Z,10.60
2022-12-20T18:36:46.607Z,10.50
2022-12-20T18:39:14.253Z,10.50
2022-12-20T18:41:42.977Z,10.60
2022-12-20T18:44:11.705Z,10.60
2022-12-20T18:46:38.888Z,10.50
2022-12-20T18:49:05.936Z,10.50
2022-12-20T18:51:38.513Z,10.50
2022-12-20T18:54:08.334Z,10.30
2022-12-20T18:56:38.040Z,10.30
2022-12-20T18:59:11.335Z,10.20
2022-12-20T19:01:40.727Z,10.10
2022-12-20T19:04:08.305Z,10.10
2022-12-20T19:06:37.383Z,10.00
2022-12-20T19:11:34.693Z,9.70
2022-12-20T19:14:01.680Z,9.70
2022-12-20T19:24:03.825Z,9.60
2022-12-20T19:26:31.285Z,9.60
2022-12-20T19:28:58.472Z,9.60
2022-12-20T19:31:29.064Z,9.60
2022-12-20T19:34:06.632Z,9.70
2022-12-20T19:36:43.709Z,9.60
2022-12-20T19:39:17.893Z,9.60
2022-12-20T19:41:54.997Z,9.60
2022-12-20T19:44:26.926Z,9.60
2022-12-20T19:46:53.898Z,9.70
2022-12-20T19:49:21.037Z,9.60
2022-12-20T19:51:49.084Z,9.60
2022-12-20T19:54:15.951Z,9.60
2022-12-20T19:56:42.894Z,9.60
2022-12-20T19:59:11.801Z,9.50
2022-12-20T20:01:38.844Z,9.50
2022-12-20T20:04:06.251Z,9.50
2022-12-20T20:06:33.337Z,9.50
2022-12-20T20:09:00.137Z,9.60
2022-12-20T20:11:28.436Z,9.60
2022-12-20T20:13:56.271Z,9.60
2022-12-20T20:16:23.946Z,9.60
2022-12-20T20:18:51.224Z,9.60
2022-12-20T20:21:22.557Z,9.60
2022-12-20T20:23:52.596Z,9.60
2022-12-20T20:26:26.401Z,9.50
2022-12-20T20:28:53.924Z,9.50
2022-12-20T20:31:22.339Z,9.40
2022-12-20T20:33:50.472Z,9.40
2022-12-20T20:36:22.517Z,9.50
2022-12-20T20:38:51.050Z,9.40
2022-12-20T20:41:18.309Z,9.50
2022-12-20T20:43:45.372Z,9.60
2022-12-20T20:46:15.420Z,9.50
2022-12-20T20:48:42.926Z,9.60
2022-12-20T20:51:11.653Z,9.50
2022-12-20T20:53:39.443Z,9.60
2022-12-20T20:56:07.957Z,9.60
2022-12-20T20:58:35.894Z,9.70
2022-12-20T21:01:05.886Z,9.70
2022-12-20T21:03:33.345Z,9.80
2022-12-20T21:06:36.999Z,9.80
2022-12-20T21:08:47.805Z,9.80
2022-12-20T21:11:14.820Z,9.70
2022-12-20T21:13:41.879Z,9.70
2022-12-20T21:16:20.181Z,9.70
2022-12-20T21:18:58.376Z,9.70
2022-12-20T21:21:26.639Z,9.70
2022-12-20T21:23:54.607Z,9.70
2022-12-20T21:26:23.089Z,9.70
2022-12-20T21:28:49.947Z,9.80
2022-12-20T21:31:19.765Z,9.80
2022-12-20T21:33:47.083Z,9.80
2022-12-20T21:36:17.564Z,9.80
2022-12-20T21:38:56.839Z,9.80
2022-12-20T21:41:26.598Z,9.80
2022-12-20T21:43:58.930Z,9.90
2022-12-20T21:46:28.415Z,9.90
2022-12-20T21:48:55.855Z,9.80
2022-12-20T21:51:25.364Z,9.80
2022-12-20T21:53:59.007Z,9.90
2022-12-20T21:56:28.354Z,9.90
2022-12-20T21:58:55.539Z,9.90
2022-12-20T22:01:26.888Z,9.90
2022-12-20T22:03:59.003Z,9.90
2022-12-20T22:06:28.006Z,9.90
2022-12-20T22:09:00.435Z,10.00
2022-12-20T22:11:28.280Z,10.00
2022-12-20T22:13:56.070Z,10.10
2022-12-20T22:16:26.642Z,10.00
2022-12-20T22:18:56.294Z,9.90
2022-12-20T22:21:27.256Z,10.00
2022-12-20T22:23:58.980Z,10.00
2022-12-20T22:26:29.960Z,10.00
2022-12-20T22:29:00.277Z,10.00
2022-12-20T22:31:27.991Z,10.10
2022-12-20T22:33:56.990Z,10.10
2022-12-20T22:36:24.879Z,10.00
2022-12-20T22:38:53.416Z,10.10
2022-12-20T22:43:50.607Z,10.10
2022-12-20T22:46:18.843Z,10.00
2022-12-20T22:48:46.489Z,10.00
2022-12-20T22:51:17.381Z,10.10
2022-12-20T22:53:45.251Z,10.00
2022-12-20T22:56:12.268Z,10.00
2022-12-20T22:58:41.283Z,10.00
2022-12-20T23:01:11.194Z,10.00
2022-12-20T23:03:38.199Z,10.10
2022-12-20T23:06:07.507Z,10.00
2022-12-20T23:08:37.330Z,10.00
2022-12-20T23:11:37.741Z,10.00
2022-12-20T23:14:28.861Z,10.00
2022-12-20T23:16:56.969Z,10.00
2022-12-20T23:19:23.848Z,10.10
2022-12-20T23:22:13.484Z,10.00
2022-12-20T23:24:40.363Z,10.10
2022-12-20T23:27:07.715Z,10.10
2022-12-20T23:29:34.620Z,10.00
2022-12-20T23:32:01.465Z,10.00
2022-12-20T23:34:28.361Z,10.00
2022-12-20T23:36:55.242Z,10.10
2022-12-20T23:39:22.037Z,10.00
2022-12-20T23:41:48.900Z,10.00
2022-12-20T23:44:15.695Z,10.00
2022-12-20T23:46:42.559Z,10.00
2022-12-20T23:49:09.366Z,10.00
2022-12-20T23:51:36.194Z,10.10
2022-12-20T23:54:03.090Z,10.00
2022-12-20T23:56:29.896Z,10.00
2022-12-20T23:58:57.726Z,10.10
